createdAt,value
2022-11-19T00:00:15.036Z,9.80
2022-11-19T00:03:20.505Z,11.23
2022-11-19T00:06:27.721Z,10.68
2022-11-19T00:09:30.564Z,10.52
2022-11-19T00:12:51.856Z,9.40
2022-11-19T00:15:54.719Z,11.27
2022-11-19T00:18:57.359Z,10.80
2022-11-19T00:22:00.232Z,10.80
2022-11-19T00:25:02.900Z,11.00
2022-11-19T00:28:06.931Z,12.07
2022-11-19T00:31:12.458Z,11.50
2022-11-19T00:34:15.398Z,12.02
2022-11-19T00:37:21.388Z,11.15
2022-11-19T00:40:24.359Z,11.10
2022-11-19T00:43:46.088Z,10.90
2022-11-19T00:46:49.066Z,12.50
2022-11-19T00:49:51.760Z,11.90
2022-11-19T00:52:54.728Z,12.48
2022-11-19T00:56:06.837Z,10.95
2022-11-19T00:59:09.827Z,12.93
2022-11-19T01:02:12.392Z,12.03
2022-11-19T01:05:15.392Z,13.40
2022-11-19T01:08:18.658Z,13.27
2022-11-19T01:11:24.894Z,8.98
2022-11-19T01:14:27.508Z,12.63
2022-11-19T01:17:30.401Z,12.87
2022-11-19T01:20:33.016Z,11.30
2022-11-19T01:23:35.872Z,8.45
2022-11-19T01:26:42.897Z,11.95
2022-11-19T01:29:48.359Z,13.32
2022-11-19T01:32:50.966Z,12.50
2022-11-19T01:36:01.886Z,13.57
2022-11-19T01:39:04.411Z,13.98
2022-11-19T01:42:30.655Z,13.02
2022-11-19T01:45:42.012Z,12.57
2022-11-19T01:49:10.732Z,13.95
2022-11-19T01:52:13.453Z,13.88
2022-11-19T01:55:19.015Z,13.15
2022-11-19T01:58:24.503Z,12.30
2022-11-19T02:01:29.228Z,13.27
2022-11-19T02:04:33.455Z,13.65
2022-11-19T02:07:38.433Z,13.45
2022-11-19T02:11:04.953Z,14.82
2022-11-19T02:14:24.164Z,12.45
2022-11-19T02:17:26.975Z,13.50
2022-11-19T02:20:46.668Z,13.65
2022-11-19T02:24:01.924Z,13.60
2022-11-19T02:27:25.951Z,14.43
2022-11-19T02:30:39.540Z,12.15
2022-11-19T02:34:01.471Z,14.80
2022-11-19T02:37:16.667Z,15.32
2022-11-19T02:40:43.002Z,13.50
2022-11-19T02:43:46.688Z,12.20
2022-11-19T02:46:53.715Z,13.65
2022-11-19T02:50:02.002Z,12.57
2022-11-19T02:53:04.947Z,9.95
2022-11-19T02:56:18.016Z,14.63
2022-11-19T03:00:11.301Z,13.62
2022-11-19T03:03:36.802Z,14.70
2022-11-19T03:06:39.998Z,15.40
2022-11-19T03:10:03.318Z,15.18
2022-11-19T03:13:34.334Z,14.75
2022-11-19T03:16:46.249Z,15.88
2022-11-19T03:20:18.476Z,14.45
2022-11-19T03:23:29.676Z,10.07
2022-11-19T03:26:37.360Z,12.35
2022-11-19T03:29:46.858Z,14.63
2022-11-19T03:32:55.337Z,16.20
2022-11-19T03:36:26.765Z,15.05
2022-11-19T03:39:29.747Z,13.00
2022-11-19T03:42:34.005Z,11.85
2022-11-19T03:45:40.918Z,13.98
2022-11-19T03:48:46.699Z,16.52
2022-11-19T03:51:59.498Z,14.35
2022-11-19T03:55:02.493Z,13.50
2022-11-19T03:58:07.105Z,12.23
2022-11-19T04:01:10.829Z,14.40
2022-11-19T04:04:32.463Z,11.70
2022-11-19T04:07:35.469Z,12.20
2022-11-19T04:10:38.518Z,12.50
2022-11-19T04:13:41.054Z,12.85
2022-11-19T04:16:44.021Z,13.45
2022-11-19T04:19:47.019Z,12.15
2022-11-19T04:22:53.066Z,12.63
2022-11-19T04:25:55.707Z,11.67
2022-11-19T04:28:59.016Z,14.73
2022-11-19T04:32:01.583Z,12.75
2022-11-19T04:35:06.068Z,13.70
2022-11-19T04:38:08.675Z,12.37
2022-11-19T04:41:11.676Z,12.60
2022-11-19T04:44:14.261Z,10.55
2022-11-19T04:47:17.257Z,10.73
2022-11-19T04:50:20.068Z,12.73
2022-11-19T04:53:23.097Z,11.75
2022-11-19T04:56:27.862Z,15.45
2022-11-19T04:59:30.715Z,13.30
2022-11-19T05:02:33.299Z,13.45
2022-11-19T05:05:36.235Z,13.07
2022-11-19T05:08:38.887Z,14.17
2022-11-19T05:11:41.777Z,15.10
2022-11-19T05:14:45.173Z,15.15
2022-11-19T05:17:48.379Z,13.73
2022-11-19T05:20:50.929Z,13.48
2022-11-19T05:23:53.758Z,13.07
2022-11-19T05:26:56.321Z,10.50
2022-11-19T05:29:59.203Z,12.75
2022-11-19T05:33:02.046Z,15.43
2022-11-19T05:36:05.406Z,14.45
2022-11-19T05:39:08.008Z,14.77
2022-11-19T05:42:11.118Z,13.93
2022-11-19T05:45:13.817Z,15.35
2022-11-19T05:48:17.771Z,14.90
2022-11-19T05:51:20.618Z,14.18
2022-11-19T05:54:23.628Z,14.10
2022-11-19T05:57:26.258Z,13.20
2022-11-19T06:00:29.386Z,14.00
2022-11-19T06:03:32.550Z,13.70
2022-11-19T06:06:35.146Z,15.97
2022-11-19T06:09:38.152Z,15.65
2022-11-19T06:12:45.770Z,14.75
2022-11-19T06:15:49.295Z,14.20
2022-11-19T06:18:51.930Z,13.88
2022-11-19T06:21:54.990Z,13.67
2022-11-19T06:24:57.610Z,13.23
2022-11-19T06:28:00.484Z,13.98
2022-11-19T06:31:03.453Z,14.50
2022-11-19T06:34:07.082Z,13.60
2022-11-19T06:37:09.761Z,14.57
2022-11-19T06:40:13.588Z,14.95
2022-11-19T06:43:16.229Z,15.10
2022-11-19T06:46:19.289Z,13.70
2022-11-19T06:49:22.214Z,13.62
2022-11-19T06:52:26.212Z,13.30
2022-11-19T06:55:30.124Z,14.40
2022-11-19T06:58:33.556Z,14.85
2022-11-19T07:01:36.159Z,13.75
2022-11-19T07:04:39.403Z,13.10
2022-11-19T07:07:42.068Z,13.33
2022-11-19T07:10:45.157Z,13.55
2022-11-19T07:14:00.305Z,13.75
2022-11-19T07:17:03.896Z,13.23
2022-11-19T07:20:07.653Z,11.77
2022-11-19T07:23:11.411Z,13.50
2022-11-19T07:26:14.481Z,13.65
2022-11-19T07:29:17.765Z,14.45
2022-11-19T07:32:20.865Z,16.87
2022-11-19T07:35:23.781Z,12.30
2022-11-19T07:38:26.387Z,14.60
2022-11-19T07:41:48.118Z,13.90
2022-11-19T07:44:54.665Z,14.57
2022-11-19T07:47:58.176Z,7.05
2022-11-19T07:51:00.773Z,13.48
2022-11-19T07:54:04.099Z,14.20
2022-11-19T07:57:06.781Z,14.32
2022-11-19T08:00:10.221Z,14.68
2022-11-19T08:03:14.849Z,14.27
2022-11-19T08:06:19.580Z,14.55
2022-11-19T08:09:22.218Z,15.37
2022-11-19T08:12:25.261Z,15.38
2022-11-19T08:15:27.830Z,12.63
2022-11-19T08:18:31.677Z,15.70
2022-11-19T08:21:34.938Z,15.15
2022-11-19T08:24:37.990Z,14.70
2022-11-19T08:27:41.124Z,13.17
2022-11-19T08:30:45.633Z,13.60
2022-11-19T08:33:48.272Z,13.62
2022-11-19T08:36:51.221Z,15.02
2022-11-19T08:39:53.869Z,14.43
2022-11-19T08:43:02.909Z,14.53
2022-11-19T08:46:07.004Z,16.23
2022-11-19T08:49:10.274Z,13.27
2022-11-19T08:52:14.460Z,14.23
2022-11-19T08:55:17.712Z,13.70
2022-11-19T08:58:20.319Z,15.37
2022-11-19T09:01:23.548Z,16.35
2022-11-19T09:04:26.123Z,15.18
2022-11-19T09:07:29.406Z,14.68
2022-11-19T09:10:32.014Z,13.93
2022-11-19T09:13:35.018Z,14.33
2022-11-19T09:16:37.639Z,15.73
2022-11-19T09:19:40.575Z,14.70
2022-11-19T09:22:43.172Z,15.07
2022-11-19T09:25:46.106Z,14.27
2022-11-19T09:28:49.551Z,14.70
2022-11-19T09:31:52.475Z,15.20
2022-11-19T09:34:55.147Z,14.43
2022-11-19T09:37:58.052Z,14.60
2022-11-19T09:41:28.264Z,11.93
2022-11-19T09:44:49.568Z,15.83
2022-11-19T09:48:25.855Z,15.20
2022-11-19T09:51:33.144Z,14.73
2022-11-19T09:54:41.602Z,14.73
2022-11-19T09:57:56.306Z,13.97
2022-11-19T10:00:59.871Z,12.53
2022-11-19T10:04:04.467Z,13.32
2022-11-19T10:07:22.288Z,14.60
2022-11-19T10:10:59.884Z,13.90
2022-11-19T10:14:29.346Z,8.33
2022-11-19T10:17:37.686Z,13.47
2022-11-19T10:20:40.207Z,12.85
2022-11-19T10:23:45.930Z,13.32
2022-11-19T10:27:01.134Z,12.95
2022-11-19T10:30:15.494Z,13.00
2022-11-19T10:33:31.360Z,11.80
2022-11-19T10:37:09.464Z,12.55
2022-11-19T10:40:21.241Z,13.60
2022-11-19T10:43:34.876Z,10.82
2022-11-19T10:46:37.848Z,12.30
2022-11-19T10:49:42.989Z,14.17
2022-11-19T10:52:51.910Z,11.82
2022-11-19T10:56:01.476Z,15.07
2022-11-19T10:59:29.307Z,17.48
2022-11-19T11:02:36.484Z,14.20
2022-11-19T11:06:12.344Z,14.00
2022-11-19T11:09:32.511Z,13.43
2022-11-19T11:12:56.653Z,11.95
2022-11-19T11:16:04.326Z,11.35
2022-11-19T11:19:17.904Z,13.20
2022-11-19T11:22:21.161Z,10.60
2022-11-19T11:25:28.157Z,16.65
2022-11-19T11:28:31.651Z,11.10
2022-11-19T11:31:41.627Z,13.95
2022-11-19T11:34:44.710Z,11.93
2022-11-19T11:37:49.100Z,16.10
2022-11-19T11:42:02.086Z,14.82
2022-11-19T11:44:37.269Z,17.58
2022-11-19T11:47:40.491Z,11.02
2022-11-19T11:50:46.832Z,14.47
2022-11-19T11:54:23.167Z,14.43
2022-11-19T11:57:31.712Z,16.23
2022-11-19T12:00:46.206Z,13.73
2022-11-19T12:03:57.568Z,14.15
2022-11-19T12:07:20.720Z,16.37
2022-11-19T12:10:51.478Z,8.20
2022-11-19T12:13:59.543Z,14.15
2022-11-19T12:17:29.776Z,15.18
2022-11-19T12:20:51.031Z,15.00
2022-11-19T12:24:16.175Z,14.83
2022-11-19T12:27:57.600Z,12.93
2022-11-19T12:31:06.550Z,14.45
2022-11-19T12:34:47.119Z,14.32
2022-11-19T12:38:08.922Z,13.68
2022-11-19T12:41:29.194Z,16.07
2022-11-19T12:44:49.991Z,13.77
2022-11-19T12:48:02.174Z,20.02
2022-11-19T12:51:28.216Z,16.62
2022-11-19T12:54:44.780Z,15.82
2022-11-19T12:57:53.442Z,15.47
2022-11-19T13:01:01.121Z,13.97
2022-11-19T13:04:25.529Z,18.87
2022-11-19T13:07:40.299Z,17.58
2022-11-19T13:10:49.334Z,15.77
2022-11-19T13:14:03.490Z,15.53
2022-11-19T13:17:15.617Z,15.80
2022-11-19T13:20:45.353Z,14.45
2022-11-19T13:23:49.295Z,14.63
2022-11-19T13:26:52.432Z,15.15
2022-11-19T13:30:01.959Z,15.63
2022-11-19T13:33:17.829Z,15.23
2022-11-19T13:36:35.844Z,14.32
2022-11-19T13:40:01.358Z,14.15
2022-11-19T13:43:38.518Z,14.48
2022-11-19T13:46:45.553Z,14.13
2022-11-19T13:49:57.021Z,13.70
2022-11-19T13:53:13.892Z,12.43
2022-11-19T13:56:17.719Z,11.93
2022-11-19T13:59:45.088Z,11.98
2022-11-19T14:03:00.394Z,13.17
2022-11-19T14:06:33.826Z,12.27
2022-11-19T14:09:55.369Z,13.98
2022-11-19T14:13:01.290Z,13.00
2022-11-19T14:16:37.485Z,14.70
2022-11-19T14:20:16.450Z,16.17
2022-11-19T14:24:07.114Z,14.60
2022-11-19T14:27:29.434Z,16.48
2022-11-19T14:31:01.892Z,13.85
2022-11-19T14:34:27.404Z,14.63
2022-11-19T14:37:41.878Z,15.17
2022-11-19T14:40:45.470Z,14.30
2022-11-19T14:44:08.599Z,16.58
2022-11-19T14:47:28.610Z,14.70
2022-11-19T14:50:36.340Z,16.45
2022-11-19T14:53:50.258Z,16.33
2022-11-19T14:57:03.905Z,15.00
2022-11-19T15:00:29.168Z,13.65
2022-11-19T15:03:32.195Z,15.50
2022-11-19T15:06:37.592Z,16.65
2022-11-19T15:10:15.279Z,14.57
2022-11-19T15:13:18.811Z,18.67
2022-11-19T15:16:25.578Z,16.42
2022-11-19T15:19:53.038Z,16.83
2022-11-19T15:23:24.999Z,16.62
2022-11-19T15:26:49.460Z,18.67
2022-11-19T15:30:10.132Z,17.83
2022-11-19T15:33:51.643Z,17.98
2022-11-19T15:37:00.881Z,23.62
2022-11-19T15:40:07.053Z,22.75
2022-11-19T15:43:21.888Z,21.37
2022-11-19T15:46:35.784Z,20.13
2022-11-19T15:49:39.833Z,20.15
2022-11-19T15:52:58.073Z,20.62
2022-11-19T15:56:07.333Z,24.37
2022-11-19T15:59:12.900Z,21.03
2022-11-19T16:02:22.712Z,29.57
2022-11-19T16:05:32.885Z,26.90
2022-11-19T16:08:35.965Z,24.83
2022-11-19T16:11:57.353Z,31.10
2022-11-19T16:15:18.538Z,33.60
2022-11-19T16:18:21.524Z,30.50
2022-11-19T16:21:29.877Z,30.37
2022-11-19T16:24:51.477Z,28.10
2022-11-19T16:28:01.217Z,25.58
2022-11-19T16:31:05.523Z,25.10
2022-11-19T16:34:24.470Z,27.10
2022-11-19T16:37:27.634Z,33.08
2022-11-19T16:40:50.687Z,31.05
2022-11-19T16:43:54.182Z,33.67
2022-11-19T16:46:56.876Z,33.00
2022-11-19T16:50:27.734Z,43.63
2022-11-19T16:53:47.109Z,38.08
2022-11-19T16:56:50.221Z,36.47
2022-11-19T16:59:57.285Z,35.90
2022-11-19T17:03:03.257Z,35.13
2022-11-19T17:06:07.769Z,34.90
2022-11-19T17:09:28.734Z,35.63
2022-11-19T17:12:34.734Z,40.30
2022-11-19T17:15:48.350Z,40.97
2022-11-19T17:18:51.532Z,40.60
2022-11-19T17:22:21.918Z,46.13
2022-11-19T17:25:24.956Z,41.17
2022-11-19T17:28:48.472Z,41.03
2022-11-19T17:31:54.092Z,37.38
2022-11-19T17:34:59.449Z,34.47
2022-11-19T17:38:17.929Z,30.43
2022-11-19T17:41:45.869Z,27.30
2022-11-19T17:44:48.564Z,24.08
2022-11-19T17:47:51.516Z,27.30
2022-11-19T17:50:55.105Z,29.93
2022-11-19T17:53:58.439Z,31.10
2022-11-19T17:57:01.133Z,26.55
2022-11-19T18:00:04.953Z,22.52
2022-11-19T18:03:14.466Z,20.30
2022-11-19T18:06:18.748Z,22.00
2022-11-19T18:09:21.870Z,20.27
2022-11-19T18:12:24.946Z,18.52
2022-11-19T18:15:28.344Z,20.40
2022-11-19T18:18:31.695Z,19.48
2022-11-19T18:21:34.699Z,21.17
2022-11-19T18:24:37.725Z,21.37
2022-11-19T18:27:40.313Z,22.62
2022-11-19T18:30:44.236Z,25.05
2022-11-19T18:33:50.324Z,23.00
2022-11-19T18:36:53.649Z,21.97
2022-11-19T18:39:56.332Z,23.43
2022-11-19T18:43:18.461Z,22.10
2022-11-19T18:46:22.040Z,21.42
2022-11-19T18:49:25.408Z,22.92
2022-11-19T18:52:28.814Z,22.17
2022-11-19T18:55:32.153Z,23.60
2022-11-19T18:58:35.457Z,24.75
2022-11-19T19:01:39.331Z,34.13
2022-11-19T19:04:42.888Z,30.42
2022-11-19T19:07:46.364Z,24.10
2022-11-19T19:10:49.063Z,22.67
2022-11-19T19:13:52.496Z,18.83
2022-11-19T19:16:55.768Z,26.60
2022-11-19T19:19:58.889Z,23.83
2022-11-19T19:23:01.987Z,20.97
2022-11-19T19:26:05.112Z,22.17
2022-11-19T19:29:08.422Z,23.42
2022-11-19T19:32:11.901Z,24.25
2022-11-19T19:35:15.160Z,23.15
2022-11-19T19:38:18.496Z,19.07
2022-11-19T19:41:26.815Z,17.23
2022-11-19T19:44:30.572Z,18.23
2022-11-19T19:47:33.485Z,18.40
2022-11-19T19:50:36.806Z,24.17
2022-11-19T19:53:42.262Z,24.50
2022-11-19T19:56:47.712Z,24.30
2022-11-19T19:59:50.686Z,23.95
2022-11-19T20:02:53.650Z,20.77
2022-11-19T20:05:56.710Z,24.08
2022-11-19T20:09:01.243Z,19.80
2022-11-19T20:12:07.598Z,18.63
2022-11-19T20:15:10.945Z,19.85
2022-11-19T20:18:13.859Z,21.27
2022-11-19T20:21:20.652Z,25.80
2022-11-19T20:24:24.446Z,28.67
2022-11-19T20:27:27.492Z,29.83
2022-11-19T20:30:31.025Z,28.33
2022-11-19T20:33:34.875Z,32.33
2022-11-19T20:36:38.132Z,29.08
2022-11-19T20:39:41.134Z,24.00
2022-11-19T20:43:02.880Z,25.00
2022-11-19T20:46:11.917Z,25.27
2022-11-19T20:49:17.209Z,25.27
2022-11-19T20:52:22.252Z,24.87
2022-11-19T20:55:25.371Z,26.70
2022-11-19T20:58:28.844Z,26.77
2022-11-19T21:01:32.857Z,26.55
2022-11-19T21:04:37.804Z,27.37
2022-11-19T21:07:40.956Z,29.15
2022-11-19T21:10:43.922Z,28.20
2022-11-19T21:13:47.328Z,27.17
2022-11-19T21:16:50.222Z,24.98
2022-11-19T21:19:54.083Z,22.23
2022-11-19T21:22:56.788Z,21.87
2022-11-19T21:26:05.947Z,22.90
2022-11-19T21:29:09.354Z,22.40
2022-11-19T21:32:12.357Z,20.27
2022-11-19T21:35:15.007Z,20.95
2022-11-19T21:38:17.911Z,18.35
2022-11-19T21:41:20.454Z,19.07
2022-11-19T21:44:25.448Z,18.33
2022-11-19T21:47:29.308Z,18.48
2022-11-19T21:50:34.155Z,18.17
2022-11-19T21:53:36.842Z,18.42
2022-11-19T21:56:39.802Z,19.33
2022-11-19T21:59:43.617Z,18.83
2022-11-19T22:02:49.619Z,17.67
2022-11-19T22:06:00.987Z,18.35
2022-11-19T22:09:05.687Z,19.00
2022-11-19T22:12:10.636Z,17.73
2022-11-19T22:15:15.846Z,19.33
2022-11-19T22:18:20.306Z,18.62
2022-11-19T22:21:24.819Z,19.70
2022-11-19T22:27:50.379Z,18.63
2022-11-19T22:30:55.204Z,19.60
2022-11-19T22:33:57.819Z,18.50
2022-11-19T22:37:01.039Z,19.02
2022-11-19T22:40:03.828Z,18.12
2022-11-19T22:43:06.899Z,18.30
2022-11-19T22:46:14.855Z,18.47
2022-11-19T22:49:17.821Z,16.52
2022-11-19T22:52:22.097Z,16.85
2022-11-19T22:55:25.803Z,17.75
2022-11-19T22:58:28.449Z,18.37
2022-11-19T23:01:33.596Z,17.53
2022-11-19T23:04:36.196Z,16.15
2022-11-19T23:07:39.045Z,18.92
2022-11-19T23:10:41.778Z,19.83
2022-11-19T23:13:45.229Z,18.77
2022-11-19T23:16:48.087Z,17.37
2022-11-19T23:19:51.036Z,19.10
2022-11-19T23:22:53.598Z,19.92
2022-11-19T23:26:00.183Z,18.58
2022-11-19T23:29:03.503Z,17.37
2022-11-19T23:32:06.462Z,17.13
2022-11-19T23:35:09.283Z,17.05
2022-11-19T23:38:12.504Z,16.80
2022-11-19T23:41:16.716Z,15.98
2022-11-19T23:44:19.633Z,17.70
2022-11-19T23:47:22.270Z,17.07
2022-11-19T23:50:25.119Z,17.45
2022-11-19T23:53:27.861Z,17.10
2022-11-19T23:56:32.880Z,15.90
2022-11-19T23:59:36.915Z,15.00
